createdAt,value
2019-04-19T00:02:00.763Z,7.00
2019-04-19T00:04:28.053Z,6.73
2019-04-19T00:07:10.625Z,7.43
2019-04-19T00:09:46.732Z,7.43
2019-04-19T00:12:24.201Z,7.67
2019-04-19T00:14:44.409Z,7.07
2019-04-19T00:17:23.310Z,7.30
2019-04-19T00:20:16.985Z,6.90
2019-04-19T00:22:41.050Z,7.87
2019-04-19T00:24:58.561Z,7.10
2019-04-19T00:27:34.437Z,7.07
2019-04-19T00:30:18.234Z,6.57
2019-04-19T00:32:54.809Z,7.30
2019-04-19T00:35:11.540Z,6.93
2019-04-19T00:37:42.829Z,7.10
2019-04-19T00:40:44.955Z,6.90
2019-04-19T00:43:39.177Z,7.20
2019-04-19T00:46:27.858Z,7.30
2019-04-19T00:48:56.291Z,7.50
2019-04-19T00:51:35.848Z,7.40
2019-04-19T00:54:00.309Z,7.30
2019-04-19T00:56:34.910Z,6.13
2019-04-19T00:59:00.897Z,7.00
2019-04-19T01:01:30.863Z,7.87
2019-04-19T01:04:05.124Z,7.20
2019-04-19T01:06:45.844Z,7.10
2019-04-19T01:09:24.408Z,7.30
2019-04-19T01:12:00.314Z,7.20
2019-04-19T01:14:27.609Z,7.40
2019-04-19T01:17:05.160Z,7.30
2019-04-19T01:19:24.214Z,7.03
2019-04-19T01:21:57.437Z,7.27
2019-04-19T01:24:34.863Z,7.20
2019-04-19T01:27:02.603Z,7.27
2019-04-19T01:29:40.477Z,7.60
2019-04-19T01:32:11.691Z,7.67
2019-04-19T01:34:41.647Z,7.80
2019-04-19T01:37:17.611Z,7.43
2019-04-19T01:40:04.551Z,7.70
2019-04-19T01:42:41.768Z,7.30
2019-04-19T01:45:17.541Z,7.40
2019-04-19T01:48:29.495Z,7.67
2019-04-19T01:51:36.750Z,7.70
2019-04-19T01:54:07.564Z,7.60
2019-04-19T01:56:22.012Z,7.83
2019-04-19T01:58:57.599Z,7.40
2019-04-19T02:01:30.717Z,7.40
2019-04-19T02:04:05.230Z,8.20
2019-04-19T02:06:39.716Z,7.77
2019-04-19T02:09:11.218Z,7.07
2019-04-19T02:12:16.870Z,6.80
2019-04-19T02:14:45.139Z,6.90
2019-04-19T02:17:09.678Z,7.43
2019-04-19T02:19:43.378Z,7.40
2019-04-19T02:22:20.161Z,7.53
2019-04-19T02:24:49.198Z,7.57
2019-04-19T02:27:20.034Z,7.20
2019-04-19T02:29:58.296Z,7.37
2019-04-19T02:32:43.222Z,7.47
2019-04-19T02:35:15.758Z,7.60
2019-04-19T02:40:47.220Z,7.07
2019-04-19T02:43:01.595Z,7.20
2019-04-19T02:45:33.433Z,7.40
2019-04-19T02:48:08.636Z,7.60
2019-04-19T02:53:18.533Z,7.77
2019-04-19T02:55:56.406Z,7.10
2019-04-19T02:58:34.019Z,7.50
2019-04-19T03:01:18.802Z,7.80
2019-04-19T03:03:34.282Z,7.17
2019-04-19T03:06:04.090Z,7.37
2019-04-19T03:08:20.674Z,7.90
2019-04-19T03:11:03.164Z,7.90
2019-04-19T03:13:45.376Z,7.67
2019-04-19T03:16:22.305Z,8.60
2019-04-19T03:18:47.745Z,7.40
2019-04-19T03:21:29.608Z,8.20
2019-04-19T03:23:55.230Z,8.23
2019-04-19T03:26:26.718Z,8.43
2019-04-19T03:28:50.140Z,7.70
2019-04-19T03:31:49.447Z,8.40
2019-04-19T03:36:43.678Z,7.40
2019-04-19T03:42:06.065Z,7.70
2019-04-19T03:44:36.052Z,8.00
2019-04-19T03:47:16.843Z,8.40
2019-04-19T03:49:44.935Z,8.83
2019-04-19T03:52:21.880Z,8.00
2019-04-19T03:54:50.520Z,8.27
2019-04-19T03:57:18.426Z,7.70
2019-04-19T03:59:41.364Z,8.43
2019-04-19T04:02:20.007Z,8.47
2019-04-19T04:04:53.761Z,8.27
2019-04-19T04:07:24.038Z,9.30
2019-04-19T04:10:08.049Z,8.60
2019-04-19T04:13:02.042Z,7.80
2019-04-19T04:16:02.772Z,8.63
2019-04-19T04:18:19.675Z,8.70
2019-04-19T04:20:54.397Z,8.50
2019-04-19T04:23:30.544Z,8.23
2019-04-19T04:26:04.838Z,8.67
2019-04-19T04:28:45.885Z,7.67
2019-04-19T04:31:15.407Z,7.93
2019-04-19T04:33:49.538Z,7.70
2019-04-19T04:36:32.242Z,9.07
2019-04-19T04:38:46.274Z,8.90
2019-04-19T04:41:22.644Z,9.10
2019-04-19T04:44:11.438Z,8.97
2019-04-19T04:47:06.107Z,8.50
2019-04-19T04:49:59.349Z,8.17
2019-04-19T04:53:23.912Z,8.73
2019-04-19T04:56:04.212Z,8.03
2019-04-19T04:58:42.036Z,9.07
2019-04-19T05:01:15.306Z,8.83
2019-04-19T05:04:02.023Z,8.80
2019-04-19T05:06:36.462Z,9.07
2019-04-19T05:09:14.053Z,9.63
2019-04-19T05:11:51.156Z,8.93
2019-04-19T05:14:23.147Z,9.20
2019-04-19T05:17:12.106Z,9.00
2019-04-19T05:19:41.519Z,9.17
2019-04-19T05:22:08.053Z,8.53
2019-04-19T05:24:52.004Z,8.53
2019-04-19T05:27:22.246Z,9.27
2019-04-19T05:29:43.494Z,8.50
2019-04-19T05:32:21.316Z,8.00
2019-04-19T05:35:00.412Z,8.40
2019-04-19T05:37:45.198Z,8.83
2019-04-19T05:40:28.993Z,8.23
2019-04-19T05:43:04.068Z,8.03
2019-04-19T05:46:04.858Z,8.67
2019-04-19T05:48:19.009Z,8.20
2019-04-19T05:51:06.120Z,12.77
2019-04-19T05:53:22.238Z,10.33
2019-04-19T05:55:45.598Z,8.70
2019-04-19T05:58:25.276Z,8.13
2019-04-19T06:01:04.636Z,9.00
2019-04-19T06:03:41.091Z,8.00
2019-04-19T06:06:21.128Z,9.00
2019-04-19T06:08:34.146Z,10.60
2019-04-19T06:11:04.881Z,8.37
2019-04-19T06:13:42.459Z,8.27
2019-04-19T06:16:27.021Z,8.20
2019-04-19T06:19:03.398Z,8.13
2019-04-19T06:21:34.160Z,8.97
2019-04-19T06:24:20.522Z,8.33
2019-04-19T06:27:13.064Z,8.27
2019-04-19T06:29:16.318Z,8.60
2019-04-19T06:31:57.199Z,8.40
2019-04-19T06:34:28.238Z,8.27
2019-04-19T06:36:37.820Z,8.50
2019-04-19T06:39:09.918Z,8.87
2019-04-19T06:41:50.286Z,8.63
2019-04-19T06:44:26.772Z,8.03
2019-04-19T06:47:01.896Z,8.67
2019-04-19T06:49:23.435Z,8.20
2019-04-19T06:52:01.401Z,7.63
2019-04-19T06:54:33.018Z,8.40
2019-04-19T06:57:11.869Z,8.20
2019-04-19T06:59:48.411Z,8.67
2019-04-19T07:02:07.206Z,7.83
2019-04-19T07:04:49.387Z,7.57
2019-04-19T07:07:29.708Z,7.17
2019-04-19T07:10:09.035Z,8.43
2019-04-19T07:12:44.016Z,7.87
2019-04-19T07:15:06.654Z,7.50
2019-04-19T07:17:37.610Z,7.63
2019-04-19T07:20:16.715Z,7.60
2019-04-19T07:22:48.999Z,7.70
2019-04-19T07:25:31.382Z,7.17
2019-04-19T07:27:50.187Z,7.27
2019-04-19T07:30:12.027Z,7.90
2019-04-19T07:32:50.842Z,7.60
2019-04-19T07:35:39.837Z,7.60
2019-04-19T07:38:17.227Z,6.43
2019-04-19T07:40:45.294Z,8.10
2019-04-19T07:43:10.356Z,7.23
2019-04-19T07:45:59.060Z,7.27
2019-04-19T07:48:15.960Z,7.90
2019-04-19T07:50:54.874Z,7.90
2019-04-19T07:53:24.849Z,7.37
2019-04-19T07:56:02.035Z,7.40
2019-04-19T08:01:39.459Z,7.37
2019-04-19T08:06:37.625Z,7.00
2019-04-19T08:09:02.236Z,7.07
2019-04-19T08:11:58.712Z,7.77
2019-04-19T08:14:09.883Z,7.90
2019-04-19T08:17:18.087Z,7.37
2019-04-19T08:29:18.312Z,7.03
2019-04-19T08:31:35.697Z,7.80
2019-04-19T08:34:11.440Z,7.23
2019-04-19T08:36:49.373Z,7.17
2019-04-19T08:39:33.834Z,6.60
2019-04-19T08:42:12.108Z,7.13
2019-04-19T08:44:36.472Z,7.40
2019-04-19T08:47:31.709Z,7.83
2019-04-19T08:50:05.256Z,7.20
2019-04-19T08:52:37.423Z,7.20
2019-04-19T08:55:30.509Z,7.13
2019-04-19T08:57:51.186Z,7.47
2019-04-19T09:00:46.517Z,7.47
2019-04-19T09:03:06.676Z,7.53
2019-04-19T09:05:43.776Z,7.47
2019-04-19T09:08:18.288Z,7.10
2019-04-19T09:10:53.202Z,6.50
2019-04-19T09:13:38.128Z,6.63
2019-04-19T09:15:57.723Z,7.20
2019-04-19T09:18:35.075Z,6.50
2019-04-19T09:21:02.981Z,7.40
2019-04-19T09:23:31.066Z,6.40
2019-04-19T09:26:05.842Z,6.43
2019-04-19T09:29:03.043Z,7.07
2019-04-19T09:31:16.858Z,7.60
2019-04-19T09:33:37.666Z,6.90
2019-04-19T09:36:11.246Z,7.27
2019-04-19T09:38:57.016Z,7.03
2019-04-19T09:41:22.617Z,7.90
2019-04-19T09:43:58.032Z,7.33
2019-04-19T09:46:18.935Z,7.30
2019-04-19T09:49:10.904Z,6.33
2019-04-19T09:51:42.682Z,7.90
2019-04-19T09:54:23.546Z,7.30
2019-04-19T09:56:52.391Z,7.60
2019-04-19T09:59:14.137Z,7.47
2019-04-19T10:01:45.683Z,7.53
2019-04-19T10:04:12.633Z,7.90
2019-04-19T10:06:44.766Z,7.23
2019-04-19T10:09:21.864Z,7.53
2019-04-19T10:11:50.886Z,7.60
2019-04-19T10:14:21.973Z,7.70
2019-04-19T10:17:00.844Z,7.73
2019-04-19T10:19:32.769Z,7.70
2019-04-19T10:22:08.457Z,7.60
2019-04-19T10:24:41.099Z,6.63
2019-04-19T10:27:37.792Z,6.83
2019-04-19T10:30:30.131Z,7.27
2019-04-19T10:33:02.471Z,7.00
2019-04-19T10:35:33.842Z,7.17
2019-04-19T10:38:05.470Z,6.23
2019-04-19T10:40:37.625Z,6.83
2019-04-19T10:43:09.388Z,5.80
2019-04-19T10:45:41.758Z,5.50
2019-04-19T10:48:13.785Z,5.80
2019-04-19T10:50:53.547Z,5.93
2019-04-19T10:53:24.269Z,5.97
2019-04-19T10:56:02.511Z,5.60
2019-04-19T10:58:34.495Z,5.30
2019-04-19T11:01:09.460Z,5.00
2019-04-19T11:03:41.226Z,5.70
2019-04-19T11:06:14.647Z,5.00
2019-04-19T11:08:46.737Z,5.67
2019-04-19T11:11:19.375Z,5.53
2019-04-19T11:13:52.018Z,5.10
2019-04-19T11:16:23.616Z,6.00
2019-04-19T11:18:58.826Z,5.63
2019-04-19T11:21:28.056Z,5.53
2019-04-19T11:23:59.936Z,5.20
2019-04-19T11:26:31.282Z,5.70
2019-04-19T11:29:03.728Z,5.40
2019-04-19T11:31:59.893Z,5.50
2019-04-19T11:34:33.437Z,5.87
2019-04-19T11:37:05.398Z,6.40
2019-04-19T11:39:37.455Z,6.03
2019-04-19T11:42:09.452Z,5.87
2019-04-19T11:44:41.586Z,5.83
2019-04-19T11:47:13.337Z,5.80
2019-04-19T11:49:46.088Z,5.53
2019-04-19T11:52:28.102Z,5.57
2019-04-19T11:55:02.469Z,5.23
2019-04-19T11:57:42.677Z,6.20
2019-04-19T12:00:27.417Z,6.47
2019-04-19T12:03:00.177Z,6.40
2019-04-19T12:05:34.099Z,5.50
2019-04-19T12:08:04.978Z,4.70
2019-04-19T12:10:37.148Z,6.20
2019-04-19T12:13:08.864Z,4.90
2019-04-19T12:15:40.426Z,4.90
2019-04-19T12:18:12.491Z,5.20
2019-04-19T12:20:43.516Z,5.17
2019-04-19T12:23:17.926Z,5.00
2019-04-19T12:25:49.648Z,5.70
2019-04-19T12:28:21.711Z,5.80
2019-04-19T12:30:55.583Z,5.10
2019-04-19T12:33:27.023Z,5.67
2019-04-19T12:35:59.204Z,5.37
2019-04-19T12:38:33.173Z,4.80
2019-04-19T12:41:05.705Z,4.87
2019-04-19T12:43:38.184Z,4.93
2019-04-19T12:46:10.894Z,4.50
2019-04-19T12:48:43.547Z,4.20
2019-04-19T12:51:16.351Z,4.73
2019-04-19T12:53:49.629Z,5.10
2019-04-19T12:56:22.368Z,5.20
2019-04-19T12:58:54.066Z,5.30
2019-04-19T13:01:50.167Z,4.57
2019-04-19T13:04:40.221Z,4.87
2019-04-19T13:07:15.274Z,4.63
2019-04-19T13:09:46.852Z,4.60
2019-04-19T13:12:19.308Z,4.30
2019-04-19T13:14:51.298Z,4.40
2019-04-19T13:17:24.019Z,4.70
2019-04-19T13:20:09.805Z,4.77
2019-04-19T13:22:28.819Z,4.30
2019-04-19T13:25:01.633Z,4.30
2019-04-19T13:27:40.372Z,4.67
2019-04-19T13:30:20.319Z,4.27
2019-04-19T13:32:41.987Z,4.23
2019-04-19T13:35:15.078Z,4.40
2019-04-19T13:38:05.268Z,4.10
2019-04-19T13:40:46.918Z,4.63
2019-04-19T13:43:20.642Z,4.70
2019-04-19T13:45:52.779Z,4.30
2019-04-19T13:48:24.998Z,4.70
2019-04-19T13:50:56.298Z,5.20
2019-04-19T13:53:28.855Z,4.57
2019-04-19T13:56:00.663Z,4.37
2019-04-19T13:58:33.846Z,4.63
2019-04-19T14:01:06.711Z,4.50
2019-04-19T14:03:39.390Z,4.03
2019-04-19T14:06:12.575Z,4.30
2019-04-19T14:08:45.215Z,4.30
2019-04-19T14:11:17.277Z,4.60
2019-04-19T14:13:53.845Z,4.30
2019-04-19T14:16:23.774Z,4.27
2019-04-19T14:18:55.677Z,4.00
2019-04-19T14:21:28.755Z,3.60
2019-04-19T14:24:01.637Z,4.10
2019-04-19T14:26:40.041Z,3.77
2019-04-19T14:29:05.582Z,3.93
2019-04-19T14:31:36.683Z,4.40
2019-04-19T14:34:09.021Z,3.53
2019-04-19T14:36:40.191Z,4.33
2019-04-19T14:39:12.751Z,4.30
2019-04-19T14:41:45.533Z,3.90
2019-04-19T14:44:17.551Z,3.63
2019-04-19T14:46:50.443Z,3.97
2019-04-19T14:49:22.901Z,3.90
2019-04-19T14:51:55.910Z,3.90
2019-04-19T14:54:27.775Z,4.20
2019-04-19T14:56:58.892Z,3.87
2019-04-19T14:59:31.526Z,4.10
2019-04-19T15:02:11.447Z,3.70
2019-04-19T15:04:47.294Z,3.73
2019-04-19T15:07:18.760Z,3.90
2019-04-19T15:09:51.270Z,3.60
2019-04-19T15:12:22.859Z,3.17
2019-04-19T15:14:55.495Z,3.50
2019-04-19T15:17:28.779Z,3.57
2019-04-19T15:19:59.959Z,3.43
2019-04-19T15:22:32.491Z,3.70
2019-04-19T15:25:04.573Z,3.90
2019-04-19T15:27:37.012Z,3.47
2019-04-19T15:30:10.784Z,3.60
2019-04-19T15:32:42.473Z,3.63
2019-04-19T15:35:19.550Z,3.90
2019-04-19T15:37:51.933Z,3.40
2019-04-19T15:40:28.070Z,3.60
2019-04-19T15:43:01.085Z,3.77
2019-04-19T15:45:33.030Z,4.00
2019-04-19T15:48:04.762Z,3.63
2019-04-19T15:50:38.029Z,3.70
2019-04-19T15:53:09.352Z,4.13
2019-04-19T15:55:42.042Z,4.10
2019-04-19T15:58:13.184Z,3.87
2019-04-19T16:00:52.405Z,4.13
2019-04-19T16:03:49.932Z,4.00
2019-04-19T16:06:52.188Z,3.87
2019-04-19T16:09:31.252Z,3.73
2019-04-19T16:12:06.169Z,4.10
2019-04-19T16:14:37.899Z,3.67
2019-04-19T16:17:09.553Z,4.67
2019-04-19T16:19:42.749Z,11.97
2019-04-19T16:22:14.363Z,3.73
2019-04-19T16:24:47.499Z,3.30
2019-04-19T16:27:20.921Z,3.70
2019-04-19T16:29:54.974Z,4.00
2019-04-19T16:32:25.300Z,4.23
2019-04-19T16:34:57.181Z,4.07
2019-04-19T16:37:28.724Z,6.47
2019-04-19T16:40:00.160Z,4.30
2019-04-19T16:42:31.407Z,4.80
2019-04-19T16:45:03.840Z,4.37
2019-04-19T16:47:39.493Z,4.10
2019-04-19T16:50:10.512Z,3.37
2019-04-19T16:52:42.611Z,3.47
2019-04-19T16:55:15.672Z,3.80
2019-04-19T16:57:48.407Z,3.80
2019-04-19T17:00:24.846Z,3.60
2019-04-19T17:02:58.674Z,3.33
2019-04-19T17:05:30.658Z,3.20
2019-04-19T17:08:01.926Z,3.13
2019-04-19T17:10:34.155Z,3.07
2019-04-19T17:13:06.664Z,2.90
2019-04-19T17:15:55.500Z,3.53
2019-04-19T17:18:45.192Z,2.90
2019-04-19T17:21:17.862Z,3.20
2019-04-19T17:23:49.538Z,3.80
2019-04-19T17:26:20.997Z,3.00
2019-04-19T17:28:52.999Z,3.90
2019-04-19T17:31:24.664Z,3.10
2019-04-19T17:33:56.391Z,2.50
2019-04-19T17:36:28.295Z,2.90
2019-04-19T17:39:00.149Z,2.90
2019-04-19T17:41:32.413Z,3.37
2019-04-19T17:44:03.700Z,2.80
2019-04-19T17:46:36.290Z,3.03
2019-04-19T17:49:08.573Z,2.93
2019-04-19T17:51:40.214Z,2.83
2019-04-19T17:54:18.629Z,3.30
2019-04-19T17:56:45.118Z,2.90
2019-04-19T17:59:19.521Z,2.60
2019-04-19T18:01:50.462Z,3.03
2019-04-19T18:04:23.957Z,2.73
2019-04-19T18:07:00.029Z,2.40
2019-04-19T18:09:29.168Z,2.70
2019-04-19T18:12:01.159Z,2.80
2019-04-19T18:14:33.752Z,3.10
2019-04-19T18:17:06.288Z,2.97
2019-04-19T18:19:41.533Z,2.50
2019-04-19T18:22:22.049Z,2.57
2019-04-19T18:24:51.615Z,2.70
2019-04-19T18:27:25.124Z,2.67
2019-04-19T18:29:59.391Z,2.80
2019-04-19T18:32:34.338Z,2.93
2019-04-19T18:35:15.183Z,2.73
2019-04-19T18:37:44.000Z,2.67
2019-04-19T18:40:15.380Z,2.83
2019-04-19T18:43:00.976Z,2.53
2019-04-19T18:45:23.860Z,2.73
2019-04-19T18:47:54.831Z,2.30
2019-04-19T18:50:26.513Z,2.50
2019-04-19T18:53:11.150Z,2.80
2019-04-19T18:55:39.406Z,2.77
2019-04-19T18:58:06.579Z,2.67
2019-04-19T19:00:42.496Z,2.97
2019-04-19T19:03:11.464Z,2.90
2019-04-19T19:05:47.889Z,2.67
2019-04-19T19:08:23.154Z,2.90
2019-04-19T19:10:52.338Z,2.93
2019-04-19T19:13:29.891Z,2.70
2019-04-19T19:15:58.229Z,2.60
2019-04-19T19:18:33.573Z,2.57
2019-04-19T19:21:06.401Z,2.60
2019-04-19T19:23:53.031Z,2.90
2019-04-19T19:26:22.900Z,2.60
2019-04-19T19:28:46.184Z,3.00
2019-04-19T19:31:18.868Z,3.00
2019-04-19T19:33:52.679Z,9.77
2019-04-19T19:36:33.825Z,4.97
2019-04-19T19:39:07.803Z,3.67
2019-04-19T19:42:24.186Z,3.20
2019-04-19T19:44:27.399Z,2.97
2019-04-19T19:47:20.587Z,3.40
2019-04-19T19:50:05.326Z,3.33
2019-04-19T19:52:17.364Z,3.67
2019-04-19T19:54:54.240Z,4.97
2019-04-19T19:57:18.384Z,3.80
2019-04-19T19:59:40.856Z,3.40
2019-04-19T20:02:22.461Z,3.30
2019-04-19T20:04:44.047Z,3.27
2019-04-19T20:07:20.678Z,3.20
2019-04-19T20:09:56.163Z,3.10
2019-04-19T20:12:29.291Z,3.50
2019-04-19T20:15:01.591Z,3.90
2019-04-19T20:17:31.569Z,3.60
2019-04-19T20:20:03.016Z,3.50
2019-04-19T20:22:40.565Z,3.63
2019-04-19T20:25:22.197Z,3.70
2019-04-19T20:27:47.191Z,3.33
2019-04-19T20:30:19.563Z,3.60
2019-04-19T20:32:54.682Z,3.60
2019-04-19T20:35:57.595Z,3.70
2019-04-19T20:38:30.033Z,4.00
2019-04-19T20:41:40.320Z,4.37
2019-04-19T20:44:24.323Z,4.03
2019-04-19T20:46:42.193Z,3.80
2019-04-19T20:49:15.172Z,4.83
2019-04-19T20:52:02.043Z,3.60
2019-04-19T20:54:46.945Z,4.30
2019-04-19T20:57:46.171Z,4.07
2019-04-19T21:00:06.044Z,4.30
2019-04-19T21:02:40.773Z,4.13
2019-04-19T21:05:13.624Z,4.27
2019-04-19T21:07:53.328Z,4.37
2019-04-19T21:10:20.384Z,3.90
2019-04-19T21:12:55.568Z,4.30
2019-04-19T21:15:31.166Z,3.97
2019-04-19T21:17:57.916Z,4.37
2019-04-19T21:20:31.228Z,3.90
2019-04-19T21:23:40.507Z,4.10
2019-04-19T21:26:16.851Z,4.20
2019-04-19T21:28:49.826Z,4.13
2019-04-19T21:31:22.058Z,4.27
2019-04-19T21:33:57.442Z,4.00
2019-04-19T21:36:27.810Z,4.00
2019-04-19T21:39:04.308Z,4.00
2019-04-19T21:41:35.467Z,4.00
2019-04-19T21:44:10.245Z,4.03
2019-04-19T21:46:40.021Z,4.00
2019-04-19T21:49:15.836Z,4.30
2019-04-19T21:51:46.136Z,4.47
2019-04-19T21:54:18.839Z,4.03
2019-04-19T21:56:52.982Z,3.90
2019-04-19T21:59:28.851Z,3.90
2019-04-19T22:01:57.293Z,4.20
2019-04-19T22:04:29.665Z,4.10
2019-04-19T22:07:05.714Z,4.53
2019-04-19T22:09:36.655Z,3.93
2019-04-19T22:12:08.216Z,3.90
2019-04-19T22:14:40.558Z,5.70
2019-04-19T22:17:16.847Z,5.57
2019-04-19T22:19:45.715Z,5.30
2019-04-19T22:22:23.547Z,4.77
2019-04-19T22:24:53.318Z,5.27
2019-04-19T22:27:25.358Z,5.87
2019-04-19T22:29:56.229Z,5.60
2019-04-19T22:32:28.826Z,5.13
2019-04-19T22:35:01.863Z,5.07
2019-04-19T22:37:36.671Z,5.43
2019-04-19T22:41:22.005Z,5.20
2019-04-19T22:43:51.588Z,5.10
2019-04-19T22:46:25.586Z,5.60
2019-04-19T22:49:02.014Z,5.10
2019-04-19T22:51:40.585Z,5.40
2019-04-19T22:54:11.244Z,5.40
2019-04-19T22:56:57.434Z,5.53
2019-04-19T22:59:21.789Z,5.30
2019-04-19T23:02:31.020Z,5.40
2019-04-19T23:05:03.119Z,5.70
2019-04-19T23:07:48.786Z,5.53
2019-04-19T23:10:15.032Z,5.03
2019-04-19T23:13:05.205Z,5.57
2019-04-19T23:15:38.868Z,5.40
2019-04-19T23:18:21.354Z,4.80
2019-04-19T23:20:50.914Z,5.20
2019-04-19T23:23:25.600Z,5.77
2019-04-19T23:26:16.529Z,4.87
2019-04-19T23:28:41.066Z,5.53
2019-04-19T23:31:13.856Z,5.70
2019-04-19T23:33:54.121Z,5.53
2019-04-19T23:36:22.899Z,5.20
2019-04-19T23:38:59.703Z,5.13
2019-04-19T23:41:26.883Z,5.20
2019-04-19T23:44:02.099Z,5.43
2019-04-19T23:46:35.360Z,5.80
2019-04-19T23:49:08.907Z,5.50
2019-04-19T23:51:39.024Z,5.40
2019-04-19T23:54:16.386Z,6.03
2019-04-19T23:56:56.958Z,5.80
2019-04-19T23:59:30.211Z,5.70
